createdAt,value
2019-05-29T00:00:35.366Z,81.17
2019-05-29T00:03:06.234Z,81.28
2019-05-29T00:05:35.401Z,81.51
2019-05-29T00:08:04.640Z,81.60
2019-05-29T00:10:33.691Z,77.70
2019-05-29T00:13:02.932Z,76.94
2019-05-29T00:15:32.242Z,77.52
2019-05-29T00:18:01.386Z,78.84
2019-05-29T00:20:30.633Z,79.10
2019-05-29T00:22:59.734Z,78.61
2019-05-29T00:25:28.984Z,77.79
2019-05-29T00:27:58.199Z,77.34
2019-05-29T00:30:27.394Z,75.98
2019-05-29T00:32:56.668Z,76.84
2019-05-29T00:35:25.975Z,77.77
2019-05-29T00:37:55.082Z,76.97
2019-05-29T00:40:24.442Z,76.91
2019-05-29T00:42:53.536Z,76.39
2019-05-29T00:45:22.813Z,77.09
2019-05-29T00:47:52.111Z,75.90
2019-05-29T00:50:21.493Z,76.28
2019-05-29T00:52:50.555Z,77.34
2019-05-29T00:55:19.660Z,76.69
2019-05-29T00:57:48.785Z,76.36
2019-05-29T01:00:19.404Z,76.93
2019-05-29T01:02:48.582Z,75.83
2019-05-29T01:05:18.163Z,75.37
2019-05-29T01:07:47.310Z,76.05
2019-05-29T01:10:16.785Z,75.79
2019-05-29T01:12:46.155Z,76.16
2019-05-29T01:15:15.507Z,75.54
2019-05-29T01:17:44.637Z,75.86
2019-05-29T01:20:14.189Z,76.11
2019-05-29T01:22:43.302Z,76.94
2019-05-29T01:25:14.413Z,77.69
2019-05-29T01:27:43.485Z,77.87
2019-05-29T01:30:13.157Z,77.33
2019-05-29T01:32:42.348Z,77.62
2019-05-29T01:35:11.423Z,78.70
2019-05-29T01:37:40.459Z,78.40
2019-05-29T01:40:19.175Z,78.42
2019-05-29T01:42:40.766Z,78.81
2019-05-29T01:45:10.045Z,79.20
2019-05-29T01:47:39.230Z,79.04
2019-05-29T01:50:09.016Z,79.12
2019-05-29T01:52:38.063Z,79.19
2019-05-29T01:55:07.303Z,78.87
2019-05-29T01:57:36.368Z,79.11
2019-05-29T02:00:06.244Z,78.72
2019-05-29T02:02:35.534Z,78.86
2019-05-29T02:05:05.237Z,78.84
2019-05-29T02:07:34.311Z,78.19
2019-05-29T02:10:03.367Z,78.27
2019-05-29T02:12:32.479Z,78.58
2019-05-29T02:15:01.556Z,78.77
2019-05-29T02:17:30.819Z,78.07
2019-05-29T02:20:00.145Z,78.37
2019-05-29T02:22:29.207Z,78.38
2019-05-29T02:24:58.516Z,78.63
2019-05-29T02:27:27.865Z,79.22
2019-05-29T02:29:57.138Z,79.45
2019-05-29T02:32:27.864Z,79.22
2019-05-29T02:34:57.225Z,79.05
2019-05-29T02:37:26.592Z,79.49
2019-05-29T02:39:55.803Z,79.47
2019-05-29T02:42:25.657Z,79.57
2019-05-29T02:44:56.245Z,79.43
2019-05-29T02:47:26.021Z,79.93
2019-05-29T02:49:55.802Z,79.54
2019-05-29T02:52:26.295Z,79.70
2019-05-29T02:54:55.525Z,79.44
2019-05-29T02:57:24.703Z,79.76
2019-05-29T02:59:53.893Z,80.32
2019-05-29T03:02:23.397Z,80.11
2019-05-29T03:04:53.022Z,79.30
2019-05-29T03:07:22.384Z,79.82
2019-05-29T03:09:52.269Z,80.22
2019-05-29T03:12:22.898Z,80.47
2019-05-29T03:14:52.038Z,80.97
2019-05-29T03:17:21.109Z,80.92
2019-05-29T03:19:50.412Z,81.48
2019-05-29T03:22:19.458Z,81.51
2019-05-29T03:24:48.793Z,81.74
2019-05-29T03:27:17.801Z,81.79
2019-05-29T03:29:47.172Z,82.32
2019-05-29T03:32:16.231Z,82.10
2019-05-29T03:34:47.225Z,81.75
2019-05-29T03:37:16.697Z,81.75
2019-05-29T03:39:45.911Z,82.45
2019-05-29T03:42:15.187Z,82.41
2019-05-29T03:44:44.389Z,82.78
2019-05-29T03:47:13.594Z,83.06
2019-05-29T03:49:42.931Z,83.33
2019-05-29T03:52:11.970Z,82.59
2019-05-29T03:54:41.214Z,83.01
2019-05-29T03:57:10.391Z,83.23
2019-05-29T03:59:39.543Z,83.58
2019-05-29T04:02:09.102Z,83.45
2019-05-29T04:04:38.450Z,83.96
2019-05-29T04:07:07.523Z,83.95
2019-05-29T04:09:37.374Z,84.26
2019-05-29T04:12:06.683Z,84.59
2019-05-29T04:14:37.738Z,83.93
2019-05-29T04:17:08.261Z,84.33
2019-05-29T04:19:38.597Z,83.77
2019-05-29T04:22:11.478Z,83.88
2019-05-29T04:24:41.326Z,84.97
2019-05-29T04:27:13.352Z,84.74
2019-05-29T04:29:44.558Z,85.02
2019-05-29T04:32:13.586Z,85.09
2019-05-29T04:34:42.660Z,85.03
2019-05-29T04:37:11.700Z,84.91
2019-05-29T04:39:40.785Z,85.45
2019-05-29T04:42:10.078Z,85.78
2019-05-29T04:44:41.179Z,85.44
2019-05-29T04:47:12.183Z,85.54
2019-05-29T04:49:41.256Z,85.05
2019-05-29T04:52:10.364Z,85.21
2019-05-29T04:54:40.282Z,85.43
2019-05-29T04:57:09.500Z,86.19
2019-05-29T04:59:39.270Z,86.08
2019-05-29T05:02:08.611Z,85.46
2019-05-29T05:04:39.397Z,85.85
2019-05-29T05:07:08.574Z,86.16
2019-05-29T05:09:37.664Z,86.18
2019-05-29T05:12:06.748Z,86.38
2019-05-29T05:14:35.849Z,86.31
2019-05-29T05:17:05.009Z,85.72
2019-05-29T05:19:34.245Z,86.05
2019-05-29T05:22:03.481Z,85.83
2019-05-29T05:24:34.088Z,85.79
2019-05-29T05:27:03.248Z,85.23
2019-05-29T05:29:32.299Z,85.19
2019-05-29T05:32:01.412Z,85.25
2019-05-29T05:34:30.876Z,84.94
2019-05-29T05:37:00.035Z,85.07
2019-05-29T05:39:29.126Z,85.67
2019-05-29T05:41:58.630Z,85.38
2019-05-29T05:44:27.807Z,85.66
2019-05-29T05:46:56.864Z,86.36
2019-05-29T05:49:25.984Z,84.55
2019-05-29T05:51:55.076Z,85.63
2019-05-29T05:54:24.312Z,85.89
2019-05-29T05:56:53.867Z,86.37
2019-05-29T05:59:23.047Z,86.94
2019-05-29T06:01:52.231Z,86.93
2019-05-29T06:04:21.466Z,86.73
2019-05-29T06:06:50.547Z,87.15
2019-05-29T06:09:19.907Z,87.48
2019-05-29T06:11:48.962Z,87.22
2019-05-29T06:14:18.235Z,86.90
2019-05-29T06:16:47.281Z,86.69
2019-05-29T06:19:16.384Z,85.76
2019-05-29T06:21:45.826Z,85.63
2019-05-29T06:24:15.003Z,85.45
2019-05-29T06:26:44.257Z,86.56
2019-05-29T06:29:13.416Z,85.86
2019-05-29T06:31:43.439Z,86.30
2019-05-29T06:34:12.904Z,85.59
2019-05-29T06:36:42.150Z,85.81
2019-05-29T06:39:11.235Z,85.16
2019-05-29T06:41:40.447Z,85.20
2019-05-29T06:44:09.780Z,86.19
2019-05-29T06:46:40.472Z,85.96
2019-05-29T06:49:09.654Z,85.88
2019-05-29T06:51:39.327Z,85.31
2019-05-29T06:54:08.530Z,85.44
2019-05-29T06:56:37.853Z,85.70
2019-05-29T06:59:06.941Z,85.22
2019-05-29T07:01:37.384Z,84.51
2019-05-29T07:04:11.845Z,83.92
2019-05-29T07:06:38.571Z,83.48
2019-05-29T07:09:07.999Z,82.19
2019-05-29T07:11:37.124Z,81.17
2019-05-29T07:14:06.287Z,80.41
2019-05-29T07:16:47.643Z,80.64
2019-05-29T07:19:24.768Z,80.69
2019-05-29T07:21:37.121Z,81.01
2019-05-29T07:24:06.169Z,81.90
2019-05-29T07:26:36.799Z,80.80
2019-05-29T07:29:08.343Z,81.71
2019-05-29T07:31:36.913Z,81.59
2019-05-29T07:34:06.013Z,82.21
2019-05-29T07:36:35.106Z,82.59
2019-05-29T07:39:06.011Z,83.37
2019-05-29T07:41:35.085Z,83.73
2019-05-29T07:44:04.303Z,81.65
2019-05-29T07:46:33.350Z,83.17
2019-05-29T07:49:02.425Z,82.58
2019-05-29T07:51:31.517Z,82.41
2019-05-29T07:54:00.610Z,81.41
2019-05-29T07:56:29.852Z,80.47
2019-05-29T07:59:03.325Z,78.66
2019-05-29T08:01:30.585Z,79.53
2019-05-29T08:03:59.820Z,78.31
2019-05-29T08:06:28.878Z,78.07
2019-05-29T08:08:57.926Z,76.87
2019-05-29T08:11:27.103Z,77.89
2019-05-29T08:13:57.293Z,76.88
2019-05-29T08:16:26.564Z,77.50
2019-05-29T08:18:55.667Z,77.82
2019-05-29T08:21:24.995Z,79.50
2019-05-29T08:23:54.164Z,79.59
2019-05-29T08:26:25.826Z,79.15
2019-05-29T08:28:54.939Z,78.45
2019-05-29T08:31:24.014Z,76.23
2019-05-29T08:33:53.225Z,76.57
2019-05-29T08:36:22.285Z,74.00
2019-05-29T08:38:51.915Z,75.12
2019-05-29T08:41:21.043Z,74.25
2019-05-29T08:43:50.782Z,72.49
2019-05-29T08:46:20.283Z,72.88
2019-05-29T08:48:52.100Z,71.75
2019-05-29T08:51:22.758Z,72.50
2019-05-29T08:53:54.578Z,72.79
2019-05-29T08:56:23.084Z,73.66
2019-05-29T08:58:52.546Z,73.75
2019-05-29T09:01:21.828Z,72.56
2019-05-29T09:03:51.378Z,73.37
2019-05-29T09:06:21.444Z,72.69
2019-05-29T09:08:53.995Z,70.46
2019-05-29T09:11:23.123Z,70.25
2019-05-29T09:13:52.421Z,70.07
2019-05-29T09:16:21.976Z,69.59
2019-05-29T09:18:51.076Z,69.81
2019-05-29T09:21:20.661Z,69.42
2019-05-29T09:23:49.731Z,70.27
2019-05-29T09:26:22.418Z,68.25
2019-05-29T09:28:52.620Z,68.46
2019-05-29T09:31:22.256Z,68.00
2019-05-29T09:33:51.456Z,67.60
2019-05-29T09:36:20.848Z,68.42
2019-05-29T09:38:51.095Z,67.11
2019-05-29T09:41:21.614Z,67.21
2019-05-29T09:43:59.368Z,68.55
2019-05-29T09:46:21.942Z,67.20
2019-05-29T09:48:51.419Z,67.74
2019-05-29T09:51:21.903Z,68.26
2019-05-29T09:53:53.582Z,68.80
2019-05-29T09:56:22.789Z,68.59
2019-05-29T09:58:53.647Z,67.34
2019-05-29T10:01:25.710Z,67.58
2019-05-29T10:03:57.607Z,67.60
2019-05-29T10:06:26.402Z,67.31
2019-05-29T10:08:56.197Z,69.79
2019-05-29T10:11:25.892Z,68.33
2019-05-29T10:13:56.773Z,70.65
2019-05-29T10:16:26.273Z,70.93
2019-05-29T10:18:57.021Z,71.51
2019-05-29T10:21:39.185Z,72.28
2019-05-29T10:23:57.993Z,73.72
2019-05-29T10:26:28.272Z,76.50
2019-05-29T10:29:07.917Z,74.09
2019-05-29T10:31:28.509Z,76.99
2019-05-29T10:33:57.688Z,78.48
2019-05-29T10:36:26.881Z,78.68
2019-05-29T10:38:56.087Z,77.56
2019-05-29T10:41:25.290Z,78.36
2019-05-29T10:43:54.558Z,77.44
2019-05-29T10:46:23.893Z,76.64
2019-05-29T10:48:56.681Z,76.86
2019-05-29T10:51:26.078Z,77.60
2019-05-29T10:53:58.375Z,77.12
2019-05-29T10:56:27.403Z,76.76
2019-05-29T10:58:59.787Z,77.41
2019-05-29T11:01:27.454Z,77.17
2019-05-29T11:03:56.545Z,75.40
2019-05-29T11:06:25.644Z,71.90
2019-05-29T11:08:56.117Z,73.52
2019-05-29T11:11:25.851Z,71.27
2019-05-29T11:13:55.218Z,71.43
2019-05-29T11:16:24.394Z,70.34
2019-05-29T11:18:53.490Z,71.55
2019-05-29T11:21:22.778Z,71.23
2019-05-29T11:23:51.912Z,69.55
2019-05-29T11:26:21.138Z,67.55
2019-05-29T11:28:52.459Z,67.87
2019-05-29T11:31:21.622Z,66.09
2019-05-29T11:33:53.130Z,66.06
2019-05-29T11:36:22.306Z,66.09
2019-05-29T11:38:52.604Z,67.20
2019-05-29T11:41:26.563Z,68.61
2019-05-29T11:43:54.890Z,64.80
2019-05-29T11:46:23.974Z,62.34
2019-05-29T11:48:53.210Z,61.39
2019-05-29T11:51:22.391Z,61.52
2019-05-29T11:53:51.587Z,60.49
2019-05-29T11:56:22.650Z,60.67
2019-05-29T11:58:52.774Z,59.99
2019-05-29T12:01:21.986Z,60.44
2019-05-29T12:04:13.257Z,60.92
2019-05-29T12:06:22.184Z,61.12
2019-05-29T12:08:51.546Z,61.41
2019-05-29T12:11:20.661Z,58.06
2019-05-29T12:13:49.935Z,55.21
2019-05-29T12:16:19.146Z,54.01
2019-05-29T12:18:48.268Z,53.79
2019-05-29T12:21:17.682Z,52.54
2019-05-29T12:23:46.813Z,51.33
2019-05-29T12:26:22.449Z,50.51
2019-05-29T12:28:48.159Z,50.45
2019-05-29T12:31:17.596Z,53.38
2019-05-29T12:33:46.919Z,53.48
2019-05-29T12:36:15.956Z,56.23
2019-05-29T12:38:45.039Z,56.27
2019-05-29T12:41:14.424Z,59.14
2019-05-29T12:43:43.602Z,56.51
2019-05-29T12:46:12.673Z,57.57
2019-05-29T12:48:42.013Z,57.42
2019-05-29T12:51:11.214Z,58.48
2019-05-29T12:53:40.569Z,56.34
2019-05-29T12:56:09.737Z,60.57
2019-05-29T12:58:38.999Z,65.82
2019-05-29T13:01:08.394Z,67.96
2019-05-29T13:03:37.795Z,70.24
2019-05-29T13:06:06.916Z,70.85
2019-05-29T13:08:36.006Z,72.58
2019-05-29T13:11:05.172Z,72.03
2019-05-29T13:13:34.262Z,73.62
2019-05-29T13:16:03.382Z,73.37
2019-05-29T13:18:32.464Z,71.87
2019-05-29T13:21:03.009Z,70.70
2019-05-29T13:23:44.825Z,71.24
2019-05-29T13:26:03.720Z,72.33
2019-05-29T13:28:32.840Z,72.24
2019-05-29T13:31:02.168Z,71.23
2019-05-29T13:33:31.544Z,71.66
2019-05-29T13:36:02.205Z,72.72
2019-05-29T13:38:31.436Z,73.16
2019-05-29T13:41:00.599Z,73.20
2019-05-29T13:43:29.727Z,72.80
2019-05-29T13:46:00.782Z,73.23
2019-05-29T13:48:30.229Z,73.03
2019-05-29T13:50:59.958Z,70.62
2019-05-29T13:53:30.627Z,70.93
2019-05-29T13:55:59.934Z,69.02
2019-05-29T13:58:29.141Z,67.42
2019-05-29T14:00:58.260Z,67.00
2019-05-29T14:03:27.525Z,67.41
2019-05-29T14:05:56.699Z,64.94
2019-05-29T14:08:25.960Z,65.77
2019-05-29T14:10:55.089Z,67.05
2019-05-29T14:13:24.579Z,66.24
2019-05-29T14:15:53.800Z,65.38
2019-05-29T14:18:23.300Z,65.23
2019-05-29T14:20:52.549Z,63.69
2019-05-29T14:23:21.880Z,61.28
2019-05-29T14:25:51.416Z,61.17
2019-05-29T14:28:20.651Z,61.22
2019-05-29T14:30:49.764Z,61.08
2019-05-29T14:33:19.947Z,56.98
2019-05-29T14:35:50.507Z,55.69
2019-05-29T14:38:19.622Z,57.11
2019-05-29T14:40:48.720Z,54.67
2019-05-29T14:43:18.354Z,54.58
2019-05-29T14:45:47.443Z,54.12
2019-05-29T14:48:16.545Z,54.30
2019-05-29T14:50:45.941Z,50.62
2019-05-29T14:53:15.751Z,50.59
2019-05-29T14:55:45.190Z,51.84
2019-05-29T14:58:14.318Z,51.85
2019-05-29T15:00:43.391Z,49.36
2019-05-29T15:03:13.566Z,49.31
2019-05-29T15:05:42.780Z,48.79
2019-05-29T15:08:12.172Z,52.11
2019-05-29T15:10:41.369Z,50.88
2019-05-29T15:13:11.585Z,50.21
2019-05-29T15:15:41.607Z,48.52
2019-05-29T15:18:15.170Z,45.61
2019-05-29T15:20:41.985Z,47.88
2019-05-29T15:23:11.563Z,47.39
2019-05-29T15:25:40.977Z,48.08
2019-05-29T15:28:13.610Z,46.94
2019-05-29T15:30:40.924Z,47.11
2019-05-29T15:33:10.916Z,44.58
2019-05-29T15:35:40.453Z,45.10
2019-05-29T15:38:10.767Z,47.58
2019-05-29T15:40:39.944Z,47.65
2019-05-29T15:43:09.081Z,45.92
2019-05-29T15:45:38.215Z,46.51
2019-05-29T15:48:08.830Z,47.59
2019-05-29T15:50:38.024Z,49.80
2019-05-29T15:53:08.901Z,48.52
2019-05-29T15:55:38.150Z,50.54
2019-05-29T15:58:07.475Z,50.80
2019-05-29T16:00:36.643Z,49.84
2019-05-29T16:03:07.580Z,51.52
2019-05-29T16:05:36.818Z,51.33
2019-05-29T16:08:06.011Z,50.10
2019-05-29T16:10:35.300Z,49.29
2019-05-29T16:13:05.161Z,51.43
2019-05-29T16:15:34.257Z,49.92
2019-05-29T16:18:03.534Z,51.78
2019-05-29T16:20:32.703Z,52.17
2019-05-29T16:23:01.866Z,52.08
2019-05-29T16:25:40.212Z,52.49
2019-05-29T16:28:01.981Z,52.17
2019-05-29T16:30:31.096Z,52.32
2019-05-29T16:33:00.599Z,50.85
2019-05-29T16:35:29.731Z,51.56
2019-05-29T16:38:00.733Z,54.64
2019-05-29T16:40:29.826Z,57.01
2019-05-29T16:42:58.962Z,57.66
2019-05-29T16:45:28.486Z,56.06
2019-05-29T16:47:57.535Z,55.51
2019-05-29T16:50:26.620Z,56.00
2019-05-29T16:52:57.079Z,56.40
2019-05-29T16:55:26.204Z,57.46
2019-05-29T16:57:55.433Z,58.89
2019-05-29T17:00:24.889Z,59.32
2019-05-29T17:02:53.967Z,57.59
2019-05-29T17:05:24.587Z,58.39
2019-05-29T17:07:53.679Z,59.81
2019-05-29T17:10:34.470Z,60.55
2019-05-29T17:13:03.848Z,60.91
2019-05-29T17:15:33.015Z,61.97
2019-05-29T17:18:04.138Z,62.22
2019-05-29T17:20:40.913Z,61.56
2019-05-29T17:23:10.247Z,62.01
2019-05-29T17:25:39.301Z,61.66
2019-05-29T17:28:08.804Z,60.88
2019-05-29T17:30:38.183Z,60.81
2019-05-29T17:33:07.820Z,61.16
2019-05-29T17:35:37.294Z,62.31
2019-05-29T17:38:06.491Z,61.73
2019-05-29T17:40:35.823Z,61.97
2019-05-29T17:43:05.314Z,60.81
2019-05-29T17:45:34.803Z,62.10
2019-05-29T17:48:04.098Z,61.78
2019-05-29T17:50:33.396Z,62.07
2019-05-29T17:53:02.615Z,63.02
2019-05-29T17:55:32.135Z,61.66
2019-05-29T17:58:01.217Z,61.44
2019-05-29T18:00:30.389Z,62.32
2019-05-29T18:02:59.629Z,61.44
2019-05-29T18:05:28.706Z,61.24
2019-05-29T18:08:01.629Z,60.72
2019-05-29T18:10:28.950Z,62.05
2019-05-29T18:12:58.295Z,62.48
2019-05-29T18:15:27.825Z,62.71
2019-05-29T18:17:56.948Z,63.32
2019-05-29T18:20:26.123Z,63.13
2019-05-29T18:22:55.447Z,63.89
2019-05-29T18:25:24.523Z,64.86
2019-05-29T18:27:53.735Z,65.07
2019-05-29T18:30:24.398Z,65.38
2019-05-29T18:32:53.554Z,65.49
2019-05-29T18:35:23.182Z,65.97
2019-05-29T18:37:52.528Z,66.79
2019-05-29T18:40:22.340Z,68.09
2019-05-29T18:42:51.661Z,68.30
2019-05-29T18:45:24.577Z,68.67
2019-05-29T18:47:55.730Z,69.43
2019-05-29T18:50:25.592Z,69.89
2019-05-29T18:52:55.057Z,70.55
2019-05-29T18:55:24.890Z,71.80
2019-05-29T18:57:54.186Z,72.18
2019-05-29T19:00:27.488Z,72.92
2019-05-29T19:02:58.095Z,73.55
2019-05-29T19:05:27.829Z,74.01
2019-05-29T19:07:57.096Z,74.38
2019-05-29T19:10:26.310Z,75.44
2019-05-29T19:12:55.590Z,75.92
2019-05-29T19:15:25.945Z,76.29
2019-05-29T19:17:55.240Z,76.74
2019-05-29T19:20:24.400Z,77.56
2019-05-29T19:22:53.554Z,77.95
2019-05-29T19:25:22.789Z,78.52
2019-05-29T19:27:52.513Z,79.13
2019-05-29T19:30:22.851Z,79.66
2019-05-29T19:32:52.278Z,79.96
2019-05-29T19:35:21.853Z,80.23
2019-05-29T19:37:50.952Z,80.94
2019-05-29T19:40:20.251Z,81.02
2019-05-29T19:42:49.689Z,80.44
2019-05-29T19:45:19.309Z,80.38
2019-05-29T19:47:48.493Z,80.64
2019-05-29T19:50:17.710Z,80.72
2019-05-29T19:52:47.023Z,80.56
2019-05-29T19:55:17.938Z,80.61
2019-05-29T19:57:55.740Z,80.93
2019-05-29T20:00:19.598Z,81.38
2019-05-29T20:02:48.829Z,82.04
2019-05-29T20:05:18.037Z,82.69
2019-05-29T20:07:47.158Z,83.24
2019-05-29T20:10:16.444Z,83.15
2019-05-29T20:12:45.776Z,83.57
2019-05-29T20:15:15.569Z,83.98
2019-05-29T20:17:44.995Z,83.92
2019-05-29T20:20:14.229Z,84.02
2019-05-29T20:22:43.576Z,84.05
2019-05-29T20:25:14.160Z,84.30
2019-05-29T20:27:43.518Z,84.31
2019-05-29T20:30:17.676Z,84.78
2019-05-29T20:32:47.870Z,85.24
2019-05-29T20:35:17.317Z,85.44
2019-05-29T20:37:46.472Z,85.64
2019-05-29T20:40:16.190Z,85.62
2019-05-29T20:42:45.676Z,85.42
2019-05-29T20:45:14.875Z,85.42
2019-05-29T20:47:44.262Z,85.21
2019-05-29T20:50:14.048Z,85.05
2019-05-29T20:52:43.176Z,84.70
2019-05-29T20:55:12.775Z,84.93
2019-05-29T20:57:42.403Z,84.96
2019-05-29T21:00:13.279Z,84.64
2019-05-29T21:02:42.702Z,84.69
2019-05-29T21:05:11.992Z,84.02
2019-05-29T21:07:41.233Z,83.86
2019-05-29T21:10:10.637Z,83.30
2019-05-29T21:12:44.029Z,83.51
2019-05-29T21:15:10.760Z,83.25
2019-05-29T21:17:40.067Z,82.86
2019-05-29T21:20:10.059Z,83.81
2019-05-29T21:22:40.277Z,84.25
2019-05-29T21:25:14.641Z,84.48
2019-05-29T21:27:43.971Z,84.66
2019-05-29T21:30:12.117Z,84.69
2019-05-29T21:32:41.943Z,84.65
2019-05-29T21:35:11.341Z,84.14
2019-05-29T21:37:40.433Z,84.72
2019-05-29T21:40:09.931Z,84.71
2019-05-29T21:42:39.006Z,85.01
2019-05-29T21:45:08.387Z,84.13
2019-05-29T21:47:38.868Z,84.35
2019-05-29T21:50:08.830Z,83.72
2019-05-29T21:52:39.160Z,83.86
2019-05-29T21:55:08.971Z,84.01
2019-05-29T21:57:41.319Z,84.06
2019-05-29T22:00:11.724Z,84.20
2019-05-29T22:02:42.166Z,84.20
2019-05-29T22:05:11.633Z,84.39
2019-05-29T22:07:40.873Z,84.32
2019-05-29T22:10:15.681Z,84.44
2019-05-29T22:12:45.030Z,84.25
2019-05-29T22:15:14.435Z,84.25
2019-05-29T22:17:43.514Z,83.54
2019-05-29T22:20:12.745Z,83.46
2019-05-29T22:22:42.076Z,83.89
2019-05-29T22:25:11.172Z,83.53
2019-05-29T22:27:40.537Z,83.96
2019-05-29T22:30:09.952Z,83.54
2019-05-29T22:32:40.755Z,83.89
2019-05-29T22:35:10.032Z,83.30
2019-05-29T22:37:39.275Z,83.37
2019-05-29T22:40:09.725Z,83.33
2019-05-29T22:42:38.908Z,83.50
2019-05-29T22:45:08.997Z,82.97
2019-05-29T22:47:38.054Z,83.15
2019-05-29T22:50:07.342Z,83.36
2019-05-29T22:52:36.710Z,83.08
2019-05-29T22:55:06.686Z,83.33
2019-05-29T22:57:36.001Z,83.51
2019-05-29T23:00:08.142Z,83.70
2019-05-29T23:02:38.197Z,84.19
2019-05-29T23:05:08.335Z,84.42
2019-05-29T23:07:37.584Z,84.57
2019-05-29T23:10:08.298Z,84.88
2019-05-29T23:12:39.383Z,84.99
2019-05-29T23:15:09.008Z,84.54
2019-05-29T23:17:40.146Z,84.71
2019-05-29T23:20:09.993Z,85.11
2019-05-29T23:22:39.080Z,85.20
2019-05-29T23:25:09.047Z,85.72
2019-05-29T23:27:38.355Z,85.86
2019-05-29T23:30:07.961Z,85.77
2019-05-29T23:32:37.045Z,86.20
2019-05-29T23:35:06.315Z,86.37
2019-05-29T23:37:35.439Z,86.88
2019-05-29T23:40:04.933Z,86.89
2019-05-29T23:42:33.990Z,86.84
2019-05-29T23:45:03.744Z,88.70
2019-05-29T23:47:33.172Z,87.59
2019-05-29T23:50:03.131Z,87.81
2019-05-29T23:52:33.451Z,88.03
2019-05-29T23:55:03.970Z,87.95
2019-05-29T23:57:33.394Z,88.35
